KAPC/APC METAR and TAF weather

Enter ICAO airport designator
Station Type Date Time Source
KAPC METAR 2019/10/18 06:54 UTC NOAA

KAPC 180654Z AUTO 06003KT 10SM CLR 10/06 A3002 RMK AO2 SLP155 T01000061


Station Type Date Time Source
KAPC Decoded METAR 2019/10/18 06:54 UTC NOAA

NAPA COUNTY AIRPORT, CA, United States (KAPC) 38-12N 122-17W 13M
Oct 18, 2019 - 02:54 AM EDT / 2019.10.18 0654 UTC
Wind: from the ENE (060 degrees) at 3 MPH (3 KT):0
Visibility: 10 mile(s):0
Sky conditions: clear
Temperature: 50.0 F (10.0 C)
Dew Point: 43.0 F (6.1 C)
Relative Humidity: 76%
Pressure (altimeter): 30.02 in. Hg (1016 hPa)
ob: KAPC 180654Z AUTO 06003KT 10SM CLR 10/06 A3002 RMK AO2 SLP155 T01000061
cycle: 7

Station Type Date Time Source
KAPC TAF 2016/02/08 18:39 UTC NOAA

TAF KAPC 081738Z 0818/0918 08008KT P6SM SKC
FM081900 09012KT P6SM SKC
FM090000 07007KT P6SM SKC
FM090600 04004KT P6SM SKC

Example: see airport list